Latest Weather Observations for Deniliquin

IDN60801

Issued at 4:52 am EDT Wednesday 13 November 2019 (issued every 10 minutes, with the page automatically refreshed every 10 minutes)

About weather observations | Map of weather stations | Latest weather observations for NSW | Other Formats
Station Details ID: 074258 Name: DENILIQUIN AIRPORT AWS Lat: -35.56 Lon: 144.95 Height: 94.0 m
Data from the previous 72 hours. | See also: Recent months at Deniliquin
Date/Time
EDT
Temp
°C
App
Temp
°C
Dew
Point
°C
Rel
Hum
%
Delta-T
°C
Wind Press
QNH
hPa
Press
MSL
hPa
Rain since
9am
mm
Dir  Spd
km/h
Gust
km/h
Spd
kts
Gust
kts
13/04:30am 6.3 1.2 0.6 67 2.2 W 17 19 9 10 1017.5 1017.2 0.0
13/04:00am 5.7 1.3 0.3 68 2.1 W 13 15 7 8 1017.7 1017.4 0.0
13/03:30am 6.1 2.1 0.2 66 2.3 W 11 15 6 8 1017.8 1017.5 0.0
13/03:00am 7.8 2.7 0.5 60 2.9 WSW 17 20 9 11 1017.9 1017.6 0.0
13/02:30am 8.3 3.2 1.0 60 3.0 WSW 17 20 9 11 1017.8 1017.5 0.0
13/02:00am 7.7 3.0 0.9 62 2.7 WSW 15 17 8 9 1017.8 1017.5 0.0
13/01:30am 8.5 3.8 0.7 58 3.2 SW 15 17 8 9 1017.9 1017.6 0.0
13/01:00am 10.0 4.9 0.9 53 3.7 SW 17 22 9 12 1017.8 1017.5 0.0
13/12:30am 10.8 4.8 0.8 50 4.1 SW 22 30 12 16 1017.7 1017.4 0.0
13/12:00am 11.8 5.0 0.6 46 4.7 SW 26 33 14 18 1017.3 1017.0 0.0
 
Date/Time
EDT
Temp
°C
App
Temp
°C
Dew
Point
°C
Rel
Hum
%
Delta-T
°C
Wind Press
QNH
hPa
Press
MSL
hPa
Rain since
9am
mm
Dir  Spd
km/h
Gust
km/h
Spd
kts
Gust
kts
12/11:30pm 12.8 4.4 -1.1 38 5.6 SW 33 41 18 22 1016.8 1016.5 0.0
12/11:00pm 13.3 4.5 -1.1 37 5.9 WSW 35 43 19 23 1016.4 1016.1 0.0
12/10:30pm 13.8 4.8 -3.0 31 6.6 WSW 35 46 19 25 1016.0 1015.7 0.0
12/10:00pm 14.3 5.6 -3.0 30 6.8 WSW 33 43 18 23 1015.4 1015.2 0.0
12/09:30pm 15.1 6.0 -3.2 28 7.2 WSW 35 48 19 26 1014.7 1014.5 0.0
12/09:00pm 15.6 6.4 -4.3 25 7.7 WSW 35 48 19 26 1014.2 1014.0 0.0
12/08:30pm 16.0 7.5 -3.5 26 7.7 WSW 32 46 17 25 1013.6 1013.4 0.0
12/08:00pm 16.9 7.5 -2.7 26 8.0 WSW 37 48 20 26 1012.9 1012.7 0.0
12/07:30pm 17.9 7.3 -3.5 23 8.7 WSW 43 56 23 30 1012.4 1012.1 0.0
12/07:00pm 18.9 8.3 -3.3 22 9.1 WSW 43 56 23 30 1011.7 1011.4 0.0
12/06:30pm 19.5 8.7 -3.4 21 9.4 WSW 44 63 24 34 1011.2 1010.9 0.0
12/06:00pm 20.1 9.9 -2.9 21 9.6 WSW 41 59 22 32 1010.8 1010.5 0.0
12/05:44pm 20.5 9.9 -3.2 20 9.9 WSW 43 61 23 33 1010.6 1010.3 0.0
12/05:30pm 21.0 9.7 -4.2 18 10.4 WSW 46 63 25 34 1010.4 1010.1 0.0
12/05:04pm 21.2 10.5 -4.0 18 10.4 WSW 43 63 23 34 1010.2 1009.9 0.0
12/05:00pm 21.2 10.5 -4.0 18 10.5 WSW 43 56 23 30 1010.2 1009.9 0.0
12/04:32pm 21.3 10.6 -4.0 18 10.5 WSW 43 63 23 34 1010.0 1009.7 0.0
12/04:30pm 21.4 10.7 -3.9 18 10.5 WSW 43 56 23 30 1009.9 1009.6 0.0
12/04:00pm 21.8 10.4 -5.1 16 11.0 WSW 46 67 25 36 1009.8 1009.5 0.0
12/03:42pm 22.0 11.7 -4.1 17 10.9 WSW 41 61 22 33 1009.6 1009.3 0.0
12/03:30pm 22.1 11.2 -4.1 17 10.9 WSW 44 59 24 32 1009.7 1009.4 0.0
12/03:03pm 21.7 11.4 -4.4 17 10.8 WSW 41 61 22 33 1009.8 1009.5 0.0
12/03:00pm 21.7 12.2 -3.6 18 10.6 WSW 37 52 20 28 1009.8 1009.5 0.0
12/02:30pm 21.1 10.9 -3.4 19 10.3 WSW 41 59 22 32 1009.9 1009.6 0.0
12/02:27pm 21.6 11.9 -2.3 20 10.3 WSW 39 57 21 31 1009.9 1009.6 0.0
12/02:00pm 20.4 10.5 -0.8 24 9.3 WSW 41 56 22 30 1009.8 1009.5 0.0
12/01:30pm 21.0 11.7 0.8 26 9.2 WSW 39 57 21 31 1009.7 1009.4 0.0
12/01:18pm 21.0 11.7 0.8 26 9.2 WSW 39 57 21 31 1009.7 1009.4 0.0
12/01:11pm 20.4 11.1 0.3 26 9.0 WSW 39 59 21 32 1009.7 1009.4 0.0
12/01:08pm 20.1 10.4 0.5 27 8.8 WSW 41 59 22 32 1009.7 1009.4 0.0
12/01:05pm 20.8 11.1 0.6 26 9.1 SW 41 59 22 32 1009.6 1009.3 0.0
12/01:00pm 20.1 10.9 1.0 28 8.7 WSW 39 56 21 30 1009.8 1009.5 0.0
12/12:30pm 19.6 10.0 1.1 29 8.4 WSW 41 56 22 30 1009.7 1009.4 0.0
12/12:09pm 19.9 10.8 1.8 30 8.3 WSW 39 57 21 31 1009.5 1009.2 0.0
12/12:00pm 19.1 9.9 1.1 30 8.1 WSW 39 56 21 30 1009.6 1009.3 0.0
12/11:50am 19.8 11.9 2.2 31 8.1 SW 33 52 18 28 1009.6 1009.3 0.0
12/11:30am 19.1 10.0 2.0 32 7.8 SW 39 54 21 29 1009.7 1009.4 0.0
12/11:02am 17.3 7.4 1.7 35 7.0 SW 43 65 23 35 1009.4 1009.1 0.0
12/11:00am 19.0 9.6 2.4 33 7.7 SW 41 54 22 29 1009.4 1009.1 0.0
12/10:30am 17.3 6.7 0.5 32 7.4 SW 46 61 25 33 1009.0 1008.7 0.0
12/10:09am 18.3 8.1 0.9 31 7.7 SW 44 63 24 34 1008.7 1008.4 0.0
12/10:00am 17.4 7.8 3.3 39 6.6 SW 43 57 23 31 1008.6 1008.3 0.0
12/09:30am 17.0 7.4 6.2 49 5.3 SW 46 57 25 31 1008.3 1008.0 0.0
12/09:00am 16.2 6.4 6.9 54 4.6 SW 48 59 26 32 1007.6 1007.3 0.0
12/08:30am 15.5 6.8 7.8 60 3.9 SW 43 57 23 31 1007.2 1006.9 0.0
12/08:00am 16.2 7.7 8.4 60 4.0 SW 43 56 23 30 1006.2 1005.9 0.0
12/07:30am 17.1 9.5 7.7 54 4.8 W 37 50 20 27 1005.4 1005.1 0.0
12/07:00am 18.2 9.2 4.4 40 6.6 W 41 50 22 27 1004.5 1004.2 0.0
12/06:30am 20.4 13.3 -4.0 19 10.0 WNW 24 37 13 20 1003.3 1003.0 0.0
12/06:00am 21.3 13.2 -6.3 15 11.0 NW 28 35 15 19 1002.7 1002.4 0.0
12/05:30am 22.1 13.6 -6.6 14 11.4 NNW 30 39 16 21 1002.1 1001.8 0.0
12/05:00am 21.9 14.3 -5.9 15 11.2 NNW 26 35 14 19 1002.2 1001.9 0.0
12/04:30am 21.6 13.6 -6.1 15 11.0 N 28 37 15 20 1002.0 1001.7 0.0
12/04:00am 22.3 14.3 -5.6 15 11.4 N 28 39 15 21 1002.4 1002.1 0.0
12/03:30am 22.8 14.4 -6.1 14 11.7 N 30 37 16 20 1003.0 1002.7 0.0
12/03:00am 23.3 15.3 -5.7 14 11.9 N 28 41 15 22 1003.4 1003.1 0.0
12/02:30am 23.2 15.2 -5.7 14 11.8 N 28 39 15 21 1003.6 1003.3 0.0
12/02:00am 23.2 15.2 -5.7 14 11.9 N 28 39 15 21 1004.2 1004.0 0.0
12/01:30am 22.8 15.1 -6.1 14 11.7 N 26 39 14 21 1005.0 1004.7 0.0
12/01:00am 22.9 14.5 -6.0 14 11.7 N 30 37 16 20 1005.6 1005.3 0.0
12/12:30am 23.8 15.4 -6.2 13 12.2 N 30 39 16 21 1005.9 1005.6 0.0
12/12:00am 24.1 15.3 -6.0 13 12.4 N 32 43 17 23 1006.0 1005.7 0.0
 
Date/Time
EDT
Temp
°C
App
Temp
°C
Dew
Point
°C
Rel
Hum
%
Delta-T
°C
Wind Press
QNH
hPa
Press
MSL
hPa
Rain since
9am
mm
Dir  Spd
km/h
Gust
km/h
Spd
kts
Gust
kts
11/11:30pm 24.3 16.7 -5.8 13 12.4 N 26 35 14 19 1006.4 1006.1 0.0
11/11:00pm 23.8 17.0 -5.3 14 12.1 N 22 28 12 15 1006.8 1006.5 0.0
11/10:30pm 23.5 17.0 -5.5 14 11.9 N 20 28 11 15 1007.2 1006.9 0.0
11/10:00pm 24.0 17.8 -5.1 14 12.1 N 19 24 10 13 1007.3 1007.0 0.0
11/09:30pm 24.5 18.6 -5.7 13 12.5 N 17 20 9 11 1007.4 1007.1 0.0
11/09:00pm 25.4 19.5 -6.0 12 13.1 N 17 24 9 13 1007.5 1007.2 0.0
11/08:30pm 26.5 20.5 -6.3 11 13.7 N 17 24 9 13 1007.6 1007.3 0.0
11/08:00pm 27.3 20.9 -6.9 10 14.2 N 19 24 10 13 1007.6 1007.3 0.0
11/07:30pm 29.0 21.1 -8.5 8 15.4 NNW 26 39 14 21 1007.5 1007.2 0.0
11/07:00pm 29.8 21.6 -8.0 8 15.8 N 28 39 15 21 1007.4 1007.1 0.0
11/06:30pm 30.2 22.8 -7.7 8 15.9 N 24 35 13 19 1007.5 1007.2 0.0
11/06:00pm 30.8 23.4 -7.2 8 16.2 NNW 24 35 13 19 1007.8 1007.5 0.0
11/05:30pm 31.0 22.9 -7.1 8 16.3 NNW 28 39 15 21 1008.2 1007.9 0.0
11/05:00pm 30.6 22.8 -7.4 8 16.1 NNW 26 33 14 18 1008.6 1008.3 0.0
11/04:51pm 30.8 22.5 -8.9 7 16.4 NNW 28 46 15 25 1008.6 1008.3 0.0
11/04:30pm 31.0 23.1 -8.8 7 16.5 NNW 26 41 14 22 1009.0 1008.7 0.0
11/04:27pm 30.8 22.9 -8.9 7 16.4 NNW 26 41 14 22 1009.0 1008.7 0.0
11/04:00pm 30.4 24.9 -9.2 7 16.3 NW 13 20 7 11 1009.4 1009.1 0.0
11/03:30pm 30.2 22.3 -9.4 7 16.2 NW 26 41 14 22 1010.0 1009.7 0.0
11/03:00pm 30.2 23.4 -9.4 7 16.2 NW 20 30 11 16 1010.7 1010.4 0.0
11/02:30pm 29.3 22.9 -6.8 9 15.3 N 19 37 10 20 1011.2 1010.9 0.0
11/02:00pm 28.9 23.0 -5.7 10 14.9 NW 17 32 9 17 1011.9 1011.6 0.0
11/01:30pm 28.9 22.5 -4.5 11 14.7 NNW 20 39 11 21 1012.3 1012.0 0.0
11/01:00pm 27.5 21.3 -3.3 13 13.7 NNW 20 30 11 16 1012.9 1012.7 0.0
11/12:30pm 26.9 20.5 -1.9 15 13.0 NW 22 32 12 17 1013.5 1013.3 0.0
11/12:00pm 27.0 20.8 -0.1 17 12.7 NNW 22 33 12 18 1014.1 1013.9 0.0
11/11:30am 26.2 19.8 0.8 19 12.0 NW 24 37 13 20 1014.4 1014.2 0.0
11/11:00am 25.8 19.5 1.8 21 11.5 NW 24 32 13 17 1014.8 1014.6 0.0
11/10:30am 24.3 17.7 1.9 23 10.7 NNW 26 35 14 19 1015.0 1014.8 0.0
11/10:00am 23.0 16.7 3.5 28 9.5 N 26 32 14 17 1015.0 1014.8 0.0
11/09:30am 22.5 17.5 4.5 31 8.9 N 20 33 11 18 1015.1 1014.9 0.0
11/09:00am 20.2 15.9 5.1 37 7.4 N 17 24 9 13 1015.2 1015.0 0.0
11/08:30am 17.8 13.8 5.1 43 6.1 N 15 19 8 10 1015.0 1014.8 0.0
11/08:00am 16.1 12.5 4.8 47 5.4 NNE 13 19 7 10 1014.9 1014.7 0.0
11/07:30am 14.6 11.9 5.4 54 4.4 NNE 9 13 5 7 1014.9 1014.7 0.0
11/07:00am 11.7 9.3 7.2 74 2.2 NNE 9 11 5 6 1014.5 1014.3 0.0
11/06:30am 9.4 6.8 6.1 80 1.5 NNE 9 11 5 6 1014.3 1014.1 0.0
11/06:00am 8.8 6.2 5.9 82 1.3 NNE 9 9 5 5 1014.0 1013.8 0.0
11/05:30am 9.7 7.6 5.9 77 1.8 N 6 7 3 4 1014.0 1013.8 0.0
11/05:00am 11.1 8.9 5.4 68 2.6 N 6 7 3 4 1013.7 1013.5 0.0
11/04:30am 10.8 8.7 5.6 70 2.4 N 6 7 3 4 1013.8 1013.6 0.0
11/04:00am 11.2 8.9 5.7 69 2.6 N 7 9 4 5 1014.0 1013.8 0.0
11/03:30am 10.4 7.9 6.5 77 1.8 NNW 9 9 5 5 1014.3 1014.1 0.0
11/03:00am 11.0 8.9 6.6 74 2.1 NNW 7 9 4 5 1014.3 1014.1 0.0
11/02:30am 11.0 10.2 6.4 73 2.2 CALM 0 0 0 0 1014.6 1014.4 0.0
11/02:00am 11.3 10.4 6.0 70 2.5 CALM 0 0 0 0 1014.7 1014.5 0.0
11/01:30am 11.9 9.8 5.8 66 2.9 NW 6 7 3 4 1015.2 1015.0 0.0
11/01:00am 11.5 10.5 5.8 68 2.7 CALM 0 0 0 0 1015.3 1015.1 0.0
11/12:30am 11.8 10.9 5.9 67 2.8 CALM 0 0 0 0 1015.7 1015.4 0.0
11/12:00am 13.2 12.1 4.9 57 3.9 CALM 0 6 0 3 1015.8 1015.5 0.0
 
Date/Time
EDT
Temp
°C
App
Temp
°C
Dew
Point
°C
Rel
Hum
%
Delta-T
°C
Wind Press
QNH
hPa
Press
MSL
hPa
Rain since
9am
mm
Dir  Spd
km/h
Gust
km/h
Spd
kts
Gust
kts
10/11:30pm 13.8 10.9 4.9 55 4.2 WNW 9 11 5 6 1015.8 1015.5 0.0
10/11:00pm 14.7 11.5 5.2 53 4.5 WNW 11 13 6 7 1015.9 1015.6 0.0
10/10:30pm 15.0 12.2 5.2 52 4.6 WNW 9 11 5 6 1015.9 1015.6 0.0
10/10:00pm 15.6 13.3 5.5 51 4.8 NW 7 7 4 4 1016.0 1015.7 0.0
10/09:30pm 16.3 13.5 5.3 48 5.3 WNW 9 11 5 6 1015.7 1015.4 0.0
10/09:00pm 16.4 13.3 5.4 48 5.3 W 11 13 6 7 1015.4 1015.2 0.0
10/08:30pm 17.2 14.3 4.9 44 5.9 W 9 11 5 6 1015.2 1015.0 0.0
10/08:00pm 18.7 15.4 4.5 39 6.8 W 11 15 6 8 1015.1 1014.9 0.0
10/07:30pm 20.7 16.2 4.3 34 8.0 W 17 20 9 11 1015.0 1014.8 0.0
10/07:00pm 22.0 17.2 4.6 32 8.6 W 19 24 10 13 1014.8 1014.6 0.0
10/06:30pm 22.4 17.4 4.5 31 8.8 W 20 28 11 15 1014.7 1014.5 0.0
10/06:00pm 23.0 17.2 4.5 30 9.2 W 24 32 13 17 1014.7 1014.5 0.0
10/05:30pm 23.4 18.4 4.4 29 9.4 WNW 20 30 11 16 1014.7 1014.5 0.0
10/05:00pm 23.4 18.5 4.9 30 9.3 WNW 20 32 11 17 1014.6 1014.4 0.0
10/04:30pm 23.5 18.7 4.5 29 9.4 W 19 28 10 15 1014.8 1014.6 0.0
10/04:00pm 23.3 18.5 4.8 30 9.2 W 19 32 10 17 1015.1 1014.9 0.0
10/03:30pm 23.0 18.6 5.0 31 9.0 W 17 30 9 16 1015.7 1015.4 0.0
10/03:00pm 21.3 16.3 4.8 34 8.1 W 20 32 11 17 1016.2 1015.9 0.0
10/02:30pm 20.6 16.3 5.4 37 7.5 WSW 17 28 9 15 1016.6 1016.3 0.0
10/02:00pm 20.2 16.4 5.8 39 7.2 WSW 15 28 8 15 1016.9 1016.6 0.0
10/01:30pm 20.3 15.2 5.9 39 7.2 WSW 22 33 12 18 1017.2 1016.9 0.0
10/01:00pm 19.0 14.8 5.5 41 6.6 WSW 17 28 9 15 1017.5 1017.2 0.0
10/12:30pm 17.6 12.9 5.2 44 6.0 WSW 19 28 10 15 1017.8 1017.5 0.0
10/12:00pm 17.6 13.1 5.9 46 5.7 WSW 19 30 10 16 1018.3 1018.0 0.0
10/11:30am 17.8 13.2 6.3 47 5.7 WSW 20 28 11 15 1018.6 1018.3 0.0
10/11:00am 15.4 10.7 5.9 53 4.6 WSW 20 32 11 17 1018.8 1018.5 0.0
10/10:30am 15.6 10.5 6.1 53 4.6 WSW 22 30 12 16 1018.7 1018.4 0.0
10/10:00am 14.8 9.6 5.6 54 4.4 WSW 22 32 12 17 1018.8 1018.5 0.0
10/09:30am 13.9 8.0 5.8 58 3.9 WSW 26 35 14 19 1018.8 1018.5 0.0
10/09:00am 13.8 8.1 6.7 62 3.4 WSW 26 33 14 18 1018.6 1018.3 0.0
10/08:30am 13.0 7.3 6.8 66 3.0 WSW 26 32 14 17 1018.3 1018.0 0.0
10/08:00am 12.2 6.2 7.1 71 2.5 WSW 28 35 15 19 1017.9 1017.6 0.0
10/07:30am 10.6 6.7 7.1 79 1.7 W 17 22 9 12 1017.7 1017.4 0.0
10/07:00am 9.1 6.3 6.9 86 1.0 W 11 15 6 8 1017.5 1017.2 0.0
10/06:30am 8.3 5.4 6.6 89 0.8 W 11 15 6 8 1017.3 1017.0 0.0
10/06:00am 7.9 4.6 6.2 89 0.8 W 13 15 7 8 1016.9 1016.6 0.0
10/05:30am 7.9 4.1 6.0 88 0.9 W 15 19 8 10 1016.6 1016.3 0.0
10/05:00am 8.4 4.6 6.0 85 1.1 W 15 19 8 10 1016.4 1016.1 0.0

Other formats

Comma delimited format used in spreadsheet applications
http://www.bom.gov.au/fwo/IDN60801/IDN60801.95869.axf

JavaScript Object Notation format (JSON) in row-major order
http://www.bom.gov.au/fwo/IDN60801/IDN60801.95869.json

Data quality

Most of these data are generated automatically and are frequently updated. Quality checks on data are not normally performed. It is possible for incorrect values to appear. Refer to information at About Latest Weather Observations and please check the disclaimer before using these data.